createdAt,value
2017-11-29T00:00:12.446Z,14.70
2017-11-29T00:02:46.559Z,17.00
2017-11-29T00:05:13.789Z,16.00
2017-11-29T00:07:40.191Z,17.45
2017-11-29T00:10:06.653Z,17.40
2017-11-29T00:12:42.228Z,14.43
2017-11-29T00:15:08.705Z,18.45
2017-11-29T00:17:35.116Z,12.95
2017-11-29T00:20:02.330Z,15.40
2017-11-29T00:22:28.734Z,18.83
2017-11-29T00:24:55.184Z,14.70
2017-11-29T00:27:21.648Z,18.33
2017-11-29T00:29:48.107Z,19.37
2017-11-29T00:32:14.544Z,20.10
2017-11-29T00:34:40.953Z,20.27
2017-11-29T00:37:07.365Z,19.87
2017-11-29T00:39:33.839Z,22.05
2017-11-29T00:42:00.243Z,19.30
2017-11-29T00:44:26.744Z,21.73
2017-11-29T00:46:53.908Z,22.67
2017-11-29T00:49:20.329Z,18.10
2017-11-29T00:51:46.740Z,15.65
2017-11-29T00:54:13.182Z,13.27
2017-11-29T00:56:39.604Z,12.50
2017-11-29T00:59:06.030Z,12.88
2017-11-29T01:01:32.545Z,11.95
2017-11-29T01:03:59.728Z,12.20
2017-11-29T01:06:26.197Z,13.48
2017-11-29T01:08:52.637Z,14.10
2017-11-29T01:11:19.061Z,13.52
2017-11-29T01:13:45.586Z,11.35
2017-11-29T01:16:12.024Z,14.20
2017-11-29T01:18:38.587Z,11.68
2017-11-29T01:21:05.041Z,13.95
2017-11-29T01:23:31.477Z,13.80
2017-11-29T01:25:57.889Z,12.90
2017-11-29T01:28:24.347Z,13.60
2017-11-29T01:30:50.796Z,15.55
2017-11-29T01:33:17.260Z,19.80
2017-11-29T01:35:44.559Z,16.77
2017-11-29T01:38:10.973Z,15.73
2017-11-29T01:40:38.156Z,15.50
2017-11-29T01:43:04.601Z,12.18
2017-11-29T01:45:31.025Z,14.98
2017-11-29T01:47:57.600Z,16.70
2017-11-29T01:50:24.016Z,18.00
2017-11-29T01:52:50.453Z,15.18
2017-11-29T01:55:16.852Z,14.60
2017-11-29T01:57:44.078Z,16.77
2017-11-29T02:00:10.461Z,13.85
2017-11-29T02:02:37.600Z,11.95
2017-11-29T02:05:04.816Z,9.50
2017-11-29T02:07:31.289Z,12.27
2017-11-29T02:09:58.476Z,11.93
2017-11-29T02:12:24.871Z,11.70
2017-11-29T02:14:51.313Z,12.48
2017-11-29T02:17:17.745Z,10.43
2017-11-29T02:19:44.192Z,11.55
2017-11-29T02:22:10.662Z,13.18
2017-11-29T02:24:37.228Z,13.55
2017-11-29T02:27:03.793Z,11.88
2017-11-29T02:29:30.316Z,10.45
2017-11-29T02:31:56.921Z,11.98
2017-11-29T02:34:23.381Z,13.13
2017-11-29T02:36:49.789Z,12.40
2017-11-29T02:39:17.030Z,6.80
2017-11-29T02:42:10.531Z,8.82
2017-11-29T02:44:37.005Z,10.40
2017-11-29T02:47:03.636Z,7.97
2017-11-29T02:49:30.280Z,7.80
2017-11-29T02:51:56.821Z,6.65
2017-11-29T02:54:23.415Z,8.65
2017-11-29T02:56:50.645Z,8.25
2017-11-29T02:59:17.031Z,9.85
2017-11-29T03:01:43.722Z,9.73
2017-11-29T03:04:10.263Z,9.98
2017-11-29T03:06:36.770Z,8.82
2017-11-29T03:09:03.373Z,6.85
2017-11-29T03:11:30.143Z,10.30
2017-11-29T03:13:56.726Z,9.98
2017-11-29T03:16:23.384Z,9.90
2017-11-29T03:18:50.687Z,9.40
2017-11-29T03:21:17.438Z,10.40
2017-11-29T03:23:44.925Z,9.15
2017-11-29T03:26:11.499Z,9.35
2017-11-29T03:28:38.689Z,10.20
2017-11-29T03:31:05.130Z,9.68
2017-11-29T03:33:31.563Z,10.93
2017-11-29T03:35:57.968Z,8.90
2017-11-29T03:38:24.406Z,10.07
2017-11-29T03:40:51.018Z,10.45
2017-11-29T03:43:24.668Z,10.75
2017-11-29T03:45:51.826Z,9.15
2017-11-29T03:48:18.266Z,8.55
2017-11-29T03:50:44.701Z,9.75
2017-11-29T03:53:11.883Z,10.57
2017-11-29T03:55:38.327Z,10.52
2017-11-29T03:58:04.779Z,12.40
2017-11-29T04:00:31.269Z,10.07
2017-11-29T04:02:58.462Z,12.15
2017-11-29T04:05:24.893Z,9.85
2017-11-29T04:07:51.335Z,9.60
2017-11-29T04:10:17.782Z,11.30
2017-11-29T04:12:44.216Z,11.85
2017-11-29T04:15:10.685Z,12.35
2017-11-29T04:17:37.241Z,8.15
2017-11-29T04:20:03.692Z,8.35
2017-11-29T04:22:30.857Z,9.93
2017-11-29T04:24:58.069Z,11.77
2017-11-29T04:27:24.470Z,9.20
2017-11-29T04:29:50.869Z,10.23
2017-11-29T04:32:17.284Z,10.57
2017-11-29T04:34:43.754Z,12.57
2017-11-29T04:37:10.938Z,11.90
2017-11-29T04:39:37.345Z,11.75
2017-11-29T04:42:03.794Z,10.15
2017-11-29T04:44:32.068Z,10.18
2017-11-29T04:46:59.237Z,12.90
2017-11-29T04:49:25.725Z,11.73
2017-11-29T04:51:52.166Z,10.18
2017-11-29T04:54:18.629Z,12.80
2017-11-29T04:56:45.065Z,13.23
2017-11-29T04:59:12.200Z,10.85
2017-11-29T05:01:38.645Z,12.27
2017-11-29T05:04:05.034Z,7.22
2017-11-29T05:06:31.451Z,6.97
2017-11-29T05:08:58.618Z,7.97
2017-11-29T05:11:25.788Z,7.53
2017-11-29T05:13:52.222Z,6.90
2017-11-29T05:16:18.671Z,6.90
2017-11-29T05:18:45.157Z,5.00
2017-11-29T05:21:11.559Z,6.10
2017-11-29T05:23:37.984Z,6.68
2017-11-29T05:26:04.501Z,5.60
2017-11-29T05:28:31.686Z,6.80
2017-11-29T05:30:58.120Z,6.68
2017-11-29T05:33:24.737Z,6.62
2017-11-29T05:35:51.876Z,6.45
2017-11-29T05:38:18.354Z,6.53
2017-11-29T05:40:44.757Z,7.25
2017-11-29T05:43:11.197Z,8.27
2017-11-29T05:45:38.388Z,9.02
2017-11-29T05:48:04.841Z,11.90
2017-11-29T05:50:31.234Z,9.35
2017-11-29T05:52:58.419Z,9.30
2017-11-29T05:55:24.889Z,8.35
2017-11-29T05:57:51.294Z,11.45
2017-11-29T06:00:17.797Z,6.80
2017-11-29T06:02:44.193Z,4.90
2017-11-29T06:05:10.735Z,5.70
2017-11-29T06:07:37.187Z,4.10
2017-11-29T06:10:03.630Z,6.70
2017-11-29T06:12:30.085Z,3.87
2017-11-29T06:14:56.532Z,4.05
2017-11-29T06:17:23.749Z,4.50
2017-11-29T06:19:50.173Z,3.90
2017-11-29T06:22:16.586Z,4.53
2017-11-29T06:24:43.063Z,4.90
2017-11-29T06:27:09.469Z,5.15
2017-11-29T06:29:35.904Z,4.72
2017-11-29T06:32:03.053Z,5.00
2017-11-29T06:34:30.253Z,4.20
2017-11-29T06:36:56.672Z,4.45
2017-11-29T06:39:23.171Z,4.60
2017-11-29T06:41:50.447Z,4.70
2017-11-29T06:44:16.936Z,4.68
2017-11-29T06:46:43.445Z,3.80
2017-11-29T06:49:10.217Z,3.70
2017-11-29T06:51:36.644Z,4.43
2017-11-29T06:54:03.066Z,4.72
2017-11-29T06:56:29.684Z,3.47
2017-11-29T06:58:56.896Z,4.12
2017-11-29T07:01:23.335Z,3.72
2017-11-29T07:03:49.794Z,4.25
2017-11-29T07:06:16.980Z,5.80
2017-11-29T07:08:44.172Z,4.97
2017-11-29T07:11:10.613Z,4.30
2017-11-29T07:13:37.029Z,4.55
2017-11-29T07:16:03.654Z,4.97
2017-11-29T07:18:30.861Z,3.90
2017-11-29T07:20:57.331Z,20.77
2017-11-29T07:23:23.744Z,5.55
2017-11-29T07:25:50.167Z,4.30
2017-11-29T07:28:16.634Z,6.05
2017-11-29T07:30:44.550Z,12.45
2017-11-29T07:33:11.973Z,6.65
2017-11-29T07:35:38.368Z,7.28
2017-11-29T07:38:04.858Z,7.15
2017-11-29T07:40:32.013Z,9.38
2017-11-29T07:42:58.465Z,4.87
2017-11-29T07:45:25.643Z,4.18
2017-11-29T07:47:52.169Z,4.85
2017-11-29T07:50:18.668Z,4.85
2017-11-29T07:52:45.083Z,5.55
2017-11-29T07:55:11.523Z,6.03
2017-11-29T07:57:37.964Z,7.53
2017-11-29T08:00:04.414Z,6.57
2017-11-29T08:02:30.939Z,6.15
2017-11-29T08:04:57.390Z,6.97
2017-11-29T08:07:23.803Z,6.43
2017-11-29T08:09:50.345Z,6.82
2017-11-29T08:12:16.806Z,6.35
2017-11-29T08:14:43.287Z,8.32
2017-11-29T08:17:10.450Z,8.27
2017-11-29T08:19:37.635Z,9.07
2017-11-29T08:22:04.089Z,7.95
2017-11-29T08:24:30.537Z,7.62
2017-11-29T08:26:57.003Z,7.50
2017-11-29T08:29:24.191Z,8.00
2017-11-29T08:31:50.637Z,7.22
2017-11-29T08:34:17.217Z,5.43
2017-11-29T08:36:43.676Z,6.75
2017-11-29T08:39:10.848Z,6.25
2017-11-29T08:41:37.331Z,21.85
2017-11-29T08:44:03.806Z,5.47
2017-11-29T08:46:30.244Z,5.35
2017-11-29T08:48:56.709Z,4.82
2017-11-29T08:51:23.955Z,6.47
2017-11-29T08:53:51.161Z,5.50
2017-11-29T08:56:17.550Z,5.47
2017-11-29T08:58:44.741Z,5.80
2017-11-29T09:01:11.373Z,7.05
2017-11-29T09:03:37.812Z,8.10
2017-11-29T09:06:04.440Z,11.65
2017-11-29T09:08:31.575Z,5.50
2017-11-29T09:10:58.036Z,6.00
2017-11-29T09:13:24.448Z,7.55
2017-11-29T09:15:50.917Z,7.97
2017-11-29T09:18:17.346Z,51.17
2017-11-29T09:20:44.493Z,7.22
2017-11-29T09:23:29.362Z,7.60
2017-11-29T09:25:56.523Z,14.02
2017-11-29T09:28:23.187Z,6.25
2017-11-29T09:30:49.630Z,5.53
2017-11-29T09:33:16.099Z,3.90
2017-11-29T09:35:42.624Z,7.53
2017-11-29T09:38:09.085Z,3.62
2017-11-29T09:40:35.559Z,3.70
2017-11-29T09:43:02.011Z,5.37
2017-11-29T09:45:28.539Z,4.17
2017-11-29T09:47:55.038Z,3.50
2017-11-29T09:50:21.537Z,3.80
2017-11-29T09:52:47.978Z,3.57
2017-11-29T09:55:14.407Z,4.97
2017-11-29T09:57:40.923Z,5.03
2017-11-29T10:00:08.124Z,4.80
2017-11-29T10:02:34.568Z,4.17
2017-11-29T10:05:01.247Z,3.63
2017-11-29T10:07:28.405Z,2.73
2017-11-29T10:09:55.618Z,3.10
2017-11-29T10:12:22.078Z,4.90
2017-11-29T10:14:48.571Z,6.97
2017-11-29T10:17:15.028Z,3.05
2017-11-29T10:19:41.439Z,2.50
2017-11-29T10:22:07.981Z,1.92
2017-11-29T10:24:34.421Z,4.47
2017-11-29T10:27:00.855Z,3.10
2017-11-29T10:29:27.373Z,3.17
2017-11-29T10:31:53.799Z,2.80
2017-11-29T10:34:20.353Z,2.55
2017-11-29T10:36:47.537Z,2.60
2017-11-29T10:39:14.140Z,3.10
2017-11-29T10:41:40.560Z,5.05
2017-11-29T10:44:06.996Z,3.42
2017-11-29T10:46:33.629Z,5.00
2017-11-29T10:49:00.143Z,4.50
2017-11-29T10:51:26.657Z,5.60
2017-11-29T10:53:53.099Z,11.90
2017-11-29T10:56:20.334Z,8.93
2017-11-29T10:58:46.786Z,3.20
2017-11-29T11:01:13.224Z,4.10
2017-11-29T11:03:39.666Z,2.25
2017-11-29T11:06:06.850Z,4.50
2017-11-29T11:08:33.424Z,2.42
2017-11-29T11:10:59.867Z,2.60
2017-11-29T11:13:26.478Z,3.00
2017-11-29T11:15:52.960Z,2.53
2017-11-29T11:18:19.405Z,5.68
2017-11-29T11:20:46.057Z,4.25
2017-11-29T11:23:12.489Z,3.60
2017-11-29T11:25:40.441Z,2.80
2017-11-29T11:28:06.905Z,4.12
2017-11-29T11:30:33.410Z,6.87
2017-11-29T11:32:59.853Z,7.10
2017-11-29T11:35:26.383Z,2.83
2017-11-29T11:37:52.828Z,6.90
2017-11-29T11:40:19.246Z,6.07
2017-11-29T11:42:45.774Z,3.45
2017-11-29T11:45:12.976Z,4.47
2017-11-29T11:47:39.423Z,16.15
2017-11-29T11:50:05.866Z,12.82
2017-11-29T11:52:32.591Z,43.20
2017-11-29T11:55:00.591Z,4.07
2017-11-29T11:57:27.807Z,4.03
2017-11-29T11:59:54.251Z,4.40
2017-11-29T12:02:20.835Z,4.22
2017-11-29T12:04:48.041Z,5.25
2017-11-29T12:07:14.482Z,8.15
2017-11-29T12:09:41.018Z,7.22
2017-11-29T12:12:07.468Z,5.72
2017-11-29T12:14:34.219Z,4.10
2017-11-29T12:17:00.644Z,4.57
2017-11-29T12:19:27.137Z,4.12
2017-11-29T12:21:54.328Z,4.18
2017-11-29T12:24:20.821Z,4.72
2017-11-29T12:26:47.287Z,7.45
2017-11-29T12:29:14.664Z,5.10
2017-11-29T12:31:41.182Z,4.55
2017-11-29T12:34:08.389Z,4.37
2017-11-29T12:36:34.952Z,5.05
2017-11-29T12:39:01.426Z,4.93
2017-11-29T12:41:28.689Z,5.18
2017-11-29T12:43:55.866Z,5.45
2017-11-29T12:46:22.392Z,6.00
2017-11-29T12:49:01.308Z,6.80
2017-11-29T12:51:27.825Z,7.62
2017-11-29T12:53:54.281Z,3.10
2017-11-29T12:56:20.812Z,7.18
2017-11-29T12:58:48.045Z,5.97
2017-11-29T13:01:14.620Z,6.70
2017-11-29T13:03:41.930Z,7.72
2017-11-29T13:06:09.802Z,6.93
2017-11-29T13:08:36.480Z,6.15
2017-11-29T13:11:03.735Z,9.30
2017-11-29T13:13:37.456Z,10.52
2017-11-29T13:16:04.859Z,7.75
2017-11-29T13:18:31.289Z,7.03
2017-11-29T13:20:57.914Z,6.82
2017-11-29T13:23:24.411Z,5.93
2017-11-29T13:25:50.806Z,6.40
2017-11-29T13:28:17.245Z,6.53
2017-11-29T13:30:43.680Z,5.62
2017-11-29T13:33:10.090Z,6.82
2017-11-29T13:35:37.295Z,7.70
2017-11-29T13:38:03.883Z,6.95
2017-11-29T13:40:31.171Z,9.20
2017-11-29T13:42:57.570Z,7.55
2017-11-29T13:45:24.750Z,8.38
2017-11-29T13:47:51.200Z,7.37
2017-11-29T13:50:17.611Z,7.40
2017-11-29T13:52:45.293Z,5.85
2017-11-29T13:55:11.704Z,5.80
2017-11-29T13:57:38.385Z,6.45
2017-11-29T14:00:04.922Z,8.25
2017-11-29T14:02:31.351Z,7.07
2017-11-29T14:04:57.824Z,9.68
2017-11-29T14:07:24.342Z,6.72
2017-11-29T14:09:50.802Z,5.53
2017-11-29T14:12:17.271Z,6.30
2017-11-29T14:14:43.772Z,5.30
2017-11-29T14:17:10.225Z,7.32
2017-11-29T14:19:36.764Z,7.32
2017-11-29T14:22:03.210Z,4.53
2017-11-29T14:24:29.871Z,6.68
2017-11-29T14:26:56.337Z,4.85
2017-11-29T14:29:23.561Z,6.55
2017-11-29T14:31:49.989Z,5.62
2017-11-29T14:34:16.408Z,7.35
2017-11-29T14:36:42.979Z,8.10
2017-11-29T14:39:09.422Z,6.53
2017-11-29T14:41:35.871Z,7.00
2017-11-29T14:44:02.354Z,6.53
2017-11-29T14:46:28.897Z,8.13
2017-11-29T14:48:55.361Z,6.97
2017-11-29T14:51:21.803Z,7.30
2017-11-29T14:53:49.108Z,6.90
2017-11-29T14:56:16.320Z,6.87
2017-11-29T14:58:42.754Z,7.37
2017-11-29T15:01:09.297Z,8.02
2017-11-29T15:03:35.803Z,8.55
2017-11-29T15:06:02.248Z,8.85
2017-11-29T15:08:28.738Z,7.40
2017-11-29T15:10:55.233Z,7.28
2017-11-29T15:13:21.641Z,8.63
2017-11-29T15:15:48.964Z,9.50
2017-11-29T15:18:15.723Z,8.88
2017-11-29T15:20:42.276Z,7.82
2017-11-29T15:23:09.471Z,13.43
2017-11-29T15:25:36.024Z,9.15
2017-11-29T15:28:02.466Z,11.80
2017-11-29T15:30:28.875Z,12.77
2017-11-29T15:32:55.328Z,13.93
2017-11-29T15:35:21.761Z,9.93
2017-11-29T15:37:49.006Z,12.13
2017-11-29T15:40:15.449Z,11.38
2017-11-29T15:42:41.914Z,11.12
2017-11-29T15:45:08.366Z,9.98
2017-11-29T15:47:34.810Z,10.85
2017-11-29T15:50:01.262Z,8.60
2017-11-29T15:52:27.747Z,13.80
2017-11-29T15:54:54.270Z,23.67
2017-11-29T15:57:22.343Z,10.65
2017-11-29T15:59:49.652Z,11.07
2017-11-29T16:02:16.096Z,18.67
2017-11-29T16:04:42.544Z,17.58
2017-11-29T16:07:09.089Z,11.60
2017-11-29T16:09:35.541Z,17.20
2017-11-29T16:12:01.932Z,16.45
2017-11-29T16:14:28.484Z,16.60
2017-11-29T16:16:54.955Z,22.05
2017-11-29T16:19:21.466Z,18.02
2017-11-29T16:21:47.945Z,18.62
2017-11-29T16:24:15.347Z,13.88
2017-11-29T16:26:41.985Z,15.63
2017-11-29T16:29:08.425Z,13.77
2017-11-29T16:31:34.946Z,10.70
2017-11-29T16:34:01.466Z,5.05
2017-11-29T16:36:28.725Z,9.70
2017-11-29T16:38:55.927Z,7.30
2017-11-29T16:41:22.393Z,7.80
2017-11-29T16:43:48.918Z,4.10
2017-11-29T16:46:15.493Z,8.52
2017-11-29T16:48:41.974Z,7.53
2017-11-29T16:51:08.485Z,9.30
2017-11-29T16:53:35.699Z,8.75
2017-11-29T16:56:02.207Z,11.18
2017-11-29T16:58:28.702Z,6.65
2017-11-29T17:00:55.159Z,14.98
2017-11-29T17:03:22.410Z,11.48
2017-11-29T17:05:49.631Z,6.65
2017-11-29T17:08:16.258Z,6.40
2017-11-29T17:10:42.878Z,10.68
2017-11-29T17:13:09.355Z,11.10
2017-11-29T17:15:35.845Z,15.35
2017-11-29T17:18:03.143Z,13.32
2017-11-29T17:20:29.611Z,15.48
2017-11-29T17:22:56.046Z,12.55
2017-11-29T17:25:22.662Z,10.38
2017-11-29T17:27:49.137Z,10.88
2017-11-29T17:30:16.527Z,9.73
2017-11-29T17:32:43.097Z,12.57
2017-11-29T17:35:09.605Z,15.13
2017-11-29T17:37:36.838Z,13.90
2017-11-29T17:40:03.320Z,18.17
2017-11-29T17:42:29.852Z,11.32
2017-11-29T17:44:56.399Z,15.80
2017-11-29T17:47:23.569Z,28.75
2017-11-29T17:49:50.100Z,10.85
2017-11-29T17:52:16.585Z,8.15
2017-11-29T17:54:44.697Z,8.73
2017-11-29T17:57:11.184Z,8.98
2017-11-29T17:59:37.772Z,13.38
2017-11-29T18:02:05.320Z,11.35
2017-11-29T18:04:31.901Z,12.75
2017-11-29T18:06:59.412Z,15.68
2017-11-29T18:09:27.773Z,16.67
2017-11-29T18:11:59.283Z,10.82
2017-11-29T18:14:26.567Z,10.77
2017-11-29T18:16:53.275Z,11.73
2017-11-29T18:19:20.536Z,12.05
2017-11-29T18:21:47.780Z,10.73
2017-11-29T18:24:14.384Z,11.05
2017-11-29T18:26:40.839Z,8.40
2017-11-29T18:29:07.333Z,9.98
2017-11-29T18:31:34.054Z,11.43
2017-11-29T18:34:01.357Z,9.38
2017-11-29T18:36:27.901Z,7.72
2017-11-29T18:38:54.362Z,9.15
2017-11-29T18:41:20.905Z,10.90
2017-11-29T18:43:47.619Z,11.40
2017-11-29T18:46:15.222Z,12.60
2017-11-29T18:48:42.031Z,10.43
2017-11-29T18:51:08.625Z,11.85
2017-11-29T18:53:35.940Z,12.73
2017-11-29T18:56:02.435Z,13.00
2017-11-29T18:58:29.684Z,12.15
2017-11-29T19:01:11.782Z,13.07
2017-11-29T19:03:38.958Z,14.30
2017-11-29T19:08:46.072Z,11.68
2017-11-29T19:11:12.569Z,12.05
2017-11-29T19:13:39.869Z,13.75
2017-11-29T19:16:06.332Z,14.60
2017-11-29T19:18:32.837Z,16.58
2017-11-29T19:20:59.463Z,16.40
2017-11-29T19:23:26.933Z,14.93
2017-11-29T19:25:53.417Z,20.00
2017-11-29T19:28:19.903Z,14.57
2017-11-29T19:30:47.155Z,15.40
2017-11-29T19:33:14.342Z,14.18
2017-11-29T19:35:40.837Z,17.58
2017-11-29T19:38:07.418Z,17.27
2017-11-29T19:40:33.926Z,16.55
2017-11-29T19:43:01.162Z,16.75
2017-11-29T19:45:27.659Z,15.80
2017-11-29T19:47:54.337Z,20.23
2017-11-29T19:50:20.781Z,16.80
2017-11-29T19:52:47.312Z,17.30
2017-11-29T19:55:13.961Z,18.30
2017-11-29T19:57:40.579Z,20.00
2017-11-29T20:00:07.107Z,16.83
2017-11-29T20:02:34.138Z,18.10
2017-11-29T20:05:01.469Z,19.10
2017-11-29T20:07:28.078Z,16.58
2017-11-29T20:09:54.626Z,20.90
2017-11-29T20:12:21.208Z,21.25
2017-11-29T20:14:48.537Z,20.08
2017-11-29T20:17:15.300Z,20.55
2017-11-29T20:19:41.904Z,22.80
2017-11-29T20:22:08.708Z,21.90
2017-11-29T20:24:36.073Z,22.77
2017-11-29T20:27:03.383Z,19.33
2017-11-29T20:29:30.185Z,22.25
2017-11-29T20:31:57.462Z,23.80
2017-11-29T20:34:24.231Z,22.00
2017-11-29T20:36:51.012Z,22.35
2017-11-29T20:39:17.667Z,20.60
2017-11-29T20:41:46.022Z,28.77
2017-11-29T20:44:12.518Z,25.83
2017-11-29T20:46:39.708Z,26.35
2017-11-29T20:49:06.311Z,26.92
2017-11-29T20:51:32.791Z,28.67
2017-11-29T20:53:59.326Z,29.45
2017-11-29T20:56:25.947Z,32.35
2017-11-29T20:58:52.504Z,39.95
2017-11-29T21:01:19.118Z,49.40
2017-11-29T21:03:45.659Z,34.47
2017-11-29T21:06:12.401Z,43.97
2017-11-29T21:08:38.913Z,40.35
2017-11-29T21:11:05.617Z,38.42
2017-11-29T21:13:32.106Z,38.55
2017-11-29T21:15:59.495Z,47.50
2017-11-29T21:18:26.232Z,44.28
2017-11-29T21:20:52.825Z,45.40
2017-11-29T21:23:19.275Z,52.72
2017-11-29T21:25:45.739Z,88.25
2017-11-29T21:28:13.120Z,42.00
2017-11-29T21:30:39.620Z,44.10
2017-11-29T21:33:06.163Z,33.53
2017-11-29T21:35:32.703Z,41.63
2017-11-29T21:37:59.186Z,32.58
2017-11-29T21:40:25.780Z,46.72
2017-11-29T21:42:53.093Z,134.30
2017-11-29T21:45:19.969Z,89.03
2017-11-29T21:47:46.613Z,66.78
2017-11-29T21:50:13.177Z,152.85
2017-11-29T21:52:39.785Z,63.85
2017-11-29T21:55:06.371Z,123.72
2017-11-29T21:57:33.624Z,68.15
2017-11-29T22:00:00.389Z,37.42
2017-11-29T22:02:26.943Z,72.05
2017-11-29T22:04:54.051Z,146.15
2017-11-29T22:07:21.292Z,48.95
2017-11-29T22:09:48.075Z,73.80
2017-11-29T22:12:16.518Z,102.95
2017-11-29T22:14:43.043Z,99.15
2017-11-29T22:17:09.478Z,62.67
2017-11-29T22:19:35.937Z,80.22
2017-11-29T22:22:02.617Z,57.28
2017-11-29T22:24:29.869Z,46.10
2017-11-29T22:26:57.127Z,48.10
2017-11-29T22:29:24.449Z,53.58
2017-11-29T22:31:51.128Z,43.20
2017-11-29T22:34:17.610Z,44.80
2017-11-29T22:36:44.045Z,43.13
2017-11-29T22:39:10.523Z,43.22
2017-11-29T22:41:36.961Z,45.78
2017-11-29T22:44:03.447Z,39.08
2017-11-29T22:46:29.926Z,39.38
2017-11-29T22:48:56.385Z,37.00
2017-11-29T22:51:22.899Z,37.78
2017-11-29T22:53:49.387Z,33.47
2017-11-29T22:56:16.633Z,35.72
2017-11-29T22:58:43.124Z,36.83
2017-11-29T23:01:09.622Z,80.55
2017-11-29T23:03:36.266Z,82.85
2017-11-29T23:06:02.841Z,57.20
2017-11-29T23:08:29.373Z,41.17
2017-11-29T23:10:55.823Z,38.13
2017-11-29T23:13:22.269Z,45.10
2017-11-29T23:15:48.789Z,97.93
2017-11-29T23:18:15.250Z,82.40
2017-11-29T23:20:41.756Z,63.87
2017-11-29T23:23:09.056Z,55.33
2017-11-29T23:25:35.798Z,57.75
2017-11-29T23:28:02.299Z,57.33
2017-11-29T23:30:29.460Z,76.78
2017-11-29T23:32:56.785Z,71.20
2017-11-29T23:35:23.266Z,99.32
2017-11-29T23:37:49.697Z,68.93
2017-11-29T23:40:16.884Z,82.22
2017-11-29T23:42:43.388Z,75.68
2017-11-29T23:45:10.606Z,120.50
2017-11-29T23:47:37.947Z,97.68
2017-11-29T23:50:04.402Z,55.83
2017-11-29T23:52:30.868Z,67.95
2017-11-29T23:54:57.380Z,56.42
2017-11-29T23:57:23.865Z,141.68
2017-11-29T23:59:51.175Z,77.87
